Fizuli, Azerbaijan
Current Conditions -  °F | °C
As of 7:00 PM on Sunday 25 Jan 2015 (Local Time) from OITL Reporting Station
Moderate Fog Moderate Fog  
Wind Chill: 18°   Ceiling: 200
Heat Index: 30°   Visibility: 0.25mi
Dew Point: 28°   Wind: 18mph
Humidity: 93%   Direction: 70°ENE
Pressure: 30.21"   Gusts: NA
Location:  39.6°N, 47.15°E
Report Text: OITL 251400Z 07016KT 0400 R15/0750D R33/1500N FZFG BKN002 BKN170 M01/M02 Q1023
Loading
Personal Weather Stations






























Interactive Weather Map New forecast layout! Learn more

10-Day Weather Forecast

Advertisements
Track Severe Weather on mobile